Time;durP1;ratioP1;P1;durP2;ratioP2;P2;SDS_P1;SDS_P2;PMS_P1;PMS_P2;Temp;Humidity;BMP_temperature;BMP_pressure;BME280_temperature;BME280_humidity;BME280_pressure;Samples;Min_cycle;Max_cycle;Signal;HPM_P1;HPM_P2
2022/11/20 00:01:21;;;;;;;8.60;4.80;;;-2.00;99.90;;;;;;5030263;28;20045;-80
2022/11/20 00:03:47;;;;;;;7.73;5.07;;;-2.00;99.90;;;;;;5029863;28;20037;-81
2022/11/20 00:06:16;;;;;;;7.80;4.80;;;-2.00;99.90;;;;;;5023980;28;20037;-77
2022/11/20 00:08:43;;;;;;;6.87;4.23;;;-2.00;99.90;;;;;;5039051;28;20032;-81
2022/11/20 00:11:12;;;;;;;6.47;4.57;;;-2.00;99.90;;;;;;5039020;28;20040;-81
2022/11/20 00:13:39;;;;;;;7.30;4.57;;;-2.00;99.90;;;;;;5039751;28;20064;-81
2022/11/20 00:16:08;;;;;;;6.83;4.03;;;-2.00;99.90;;;;;;5041030;28;20491;-83
2022/11/20 00:18:35;;;;;;;7.37;4.57;;;-2.00;99.90;;;;;;5042651;28;20485;-82
2022/11/20 00:21:04;;;;;;;6.47;3.90;;;-2.00;99.90;;;;;;5009321;28;20028;-81
2022/11/20 00:23:30;;;;;;;5.13;3.33;;;-2.00;99.90;;;;;;5017746;28;20452;-78
2022/11/20 00:26:02;;;;;;;6.03;3.80;;;-2.00;99.90;;;;;;5041127;28;20040;-81
2022/11/20 00:28:28;;;;;;;5.97;3.37;;;-2.10;99.90;;;;;;5028903;28;20029;-80
2022/11/20 00:31:01;;;;;;;5.93;3.67;;;-2.10;99.90;;;;;;5024675;28;20104;-81
2022/11/20 00:33:28;;;;;;;5.93;4.27;;;-1.90;99.90;;;;;;5028689;28;20041;-79
2022/11/20 00:36:06;;;;;;;5.87;4.33;;;-1.60;99.90;;;;;;5022680;28;20063;-79
2022/11/20 00:38:33;;;;;;;7.20;4.17;;;-1.40;99.90;;;;;;5014247;28;20032;-81
2022/11/20 00:41:03;;;;;;;6.00;3.73;;;-1.30;99.90;;;;;;5009783;28;20029;-78
2022/11/20 00:43:29;;;;;;;5.17;3.50;;;-1.30;99.90;;;;;;5025181;28;20040;-80
2022/11/20 00:46:03;;;;;;;6.20;4.57;;;-1.40;99.90;;;;;;5030852;28;20033;-77
2022/11/20 00:48:30;;;;;;;6.33;3.97;;;-1.40;99.90;;;;;;5039735;28;20421;-81
2022/11/20 00:50:57;;;;;;;6.33;4.03;;;-1.50;99.90;;;;;;5008982;28;20459;-81
2022/11/20 00:53:24;;;;;;;7.27;4.47;;;-1.60;99.90;;;;;;5028714;28;20550;-80
2022/11/20 00:56:02;;;;;;;8.87;4.40;;;-1.80;99.90;;;;;;5041233;28;20048;-81
2022/11/20 00:58:31;;;;;;;4.73;3.27;;;-1.90;99.90;;;;;;5027404;28;20420;-78
2022/11/20 01:01:03;;;;;;;13.07;7.23;;;-2.00;99.90;;;;;;5039308;28;20036;-78
2022/11/20 01:03:35;;;;;;;10.60;7.20;;;-2.10;99.90;;;;;;5010617;28;20041;-78
2022/11/20 01:06:18;;;;;;;8.77;5.60;;;-2.10;99.90;;;;;;5040775;28;20021;-81
2022/11/20 01:08:45;;;;;;;8.60;4.90;;;-2.10;99.90;;;;;;5017530;28;20052;-81
2022/11/20 01:11:15;;;;;;;8.23;5.37;;;-2.10;99.90;;;;;;5027807;28;20392;-79
2022/11/20 01:13:42;;;;;;;9.50;6.07;;;-2.10;99.90;;;;;;5044696;28;20029;-80
2022/11/20 01:16:11;;;;;;;8.30;4.80;;;-2.10;99.90;;;;;;5042313;28;20040;-80
2022/11/20 01:18:40;;;;;;;10.70;5.90;;;-2.20;99.90;;;;;;5045071;28;20041;-75
2022/11/20 01:21:18;;;;;;;10.67;6.67;;;-2.20;99.90;;;;;;5043670;28;20040;-79
2022/11/20 01:23:46;;;;;;;6.23;4.30;;;-2.20;99.90;;;;;;5041877;28;20033;-80
2022/11/20 01:26:15;;;;;;;6.10;3.90;;;-2.20;99.90;;;;;;5047326;28;20037;-81
2022/11/20 01:28:42;;;;;;;5.93;4.17;;;-2.20;99.90;;;;;;5031316;28;20041;-80
2022/11/20 01:31:14;;;;;;;5.43;3.57;;;-2.30;99.90;;;;;;5046961;28;20028;-79
2022/11/20 01:33:41;;;;;;;6.50;3.85;;;-2.30;99.90;;;;;;5045055;28;20048;-81
2022/11/20 01:36:09;;;;;;;11.77;7.40;;;-2.30;99.90;;;;;;5046318;28;20030;-80
2022/11/20 01:38:35;;;;;;;10.53;5.80;;;-2.30;99.90;;;;;;5030649;28;20044;-81
2022/11/20 01:41:02;;;;;;;7.77;4.67;;;-2.40;99.90;;;;;;5044655;28;20048;-79
2022/11/20 01:43:28;;;;;;;6.93;4.63;;;-2.30;99.90;;;;;;5047037;28;20040;-80
2022/11/20 01:46:17;;;;;;;7.80;4.57;;;-2.30;99.90;;;;;;5015293;28;20032;-79
2022/11/20 01:48:56;;;;;;;7.40;4.43;;;-2.40;99.90;;;;;;5045259;28;20040;-80
2022/11/20 01:51:39;;;;;;;5.07;3.40;;;-2.40;99.90;;;;;;5031586;28;20052;-80
2022/11/20 01:54:07;;;;;;;;;;;-2.40;99.90;;;;;;5031579;28;21072;-79
2022/11/20 01:56:38;;;;;;;4.50;2.87;;;-2.40;99.90;;;;;;5042492;28;19928;-81
2022/11/20 01:59:08;;;;;;;5.13;3.20;;;-2.40;99.90;;;;;;5029543;28;20554;-79
2022/11/20 02:01:34;;;;;;;7.30;4.20;;;-2.40;99.90;;;;;;5044541;28;20056;-81
2022/11/20 02:04:02;;;;;;;6.13;3.80;;;-2.40;99.90;;;;;;5044085;28;20032;-81
2022/11/20 02:06:51;;;;;;;5.33;3.47;;;-2.40;99.90;;;;;;5045579;28;20032;-78
2022/11/20 02:09:17;;;;;;;5.90;3.23;;;-2.40;99.90;;;;;;5033993;28;20056;-78
2022/11/20 02:11:43;;;;;;;5.43;2.80;;;-2.50;99.90;;;;;;5044252;28;20037;-80
2022/11/20 02:14:10;;;;;;;6.90;3.87;;;-2.40;99.90;;;;;;5044373;28;20052;-82
2022/11/20 02:16:40;;;;;;;6.60;3.73;;;-2.40;99.90;;;;;;5042081;28;20596;-81
2022/11/20 02:19:24;;;;;;;6.37;4.23;;;-2.40;99.90;;;;;;5030127;28;20040;-79
2022/11/20 02:22:10;;;;;;;7.83;4.90;;;-2.50;99.90;;;;;;5044462;28;20025;-79
2022/11/20 02:24:36;;;;;;;7.03;4.17;;;-2.50;99.90;;;;;;5011621;28;20044;-78
2022/11/20 02:27:13;;;;;;;6.90;4.50;;;-2.50;99.90;;;;;;5029414;28;20477;-80
2022/11/20 02:29:58;;;;;;;4.10;2.90;;;-2.50;99.90;;;;;;5041239;28;20048;-75
2022/11/20 02:32:30;;;;;;;5.17;3.23;;;-2.50;99.90;;;;;;5043211;28;20032;-77
2022/11/20 02:34:57;;;;;;;;;;;-2.50;99.90;;;;;;5024849;28;20040;-79
2022/11/20 02:37:30;;;;;;;4.70;2.80;;;-2.50;99.90;;;;;;5047156;28;19931;-80
2022/11/20 02:39:56;;;;;;;6.07;3.47;;;-2.60;99.90;;;;;;5036984;28;20028;-78
2022/11/20 02:42:23;;;;;;;5.87;3.80;;;-2.60;99.90;;;;;;5044823;28;20331;-78
2022/11/20 02:44:49;;;;;;;5.80;3.77;;;-2.60;99.90;;;;;;5016580;28;20044;-79
2022/11/20 02:47:15;;;;;;;6.70;4.00;;;-2.60;99.90;;;;;;5042165;28;20037;-79
2022/11/20 02:49:42;;;;;;;8.10;4.97;;;-2.60;99.90;;;;;;5024420;28;20071;-77
2022/11/20 02:52:08;;;;;;;7.90;4.50;;;-2.60;99.90;;;;;;5027049;28;20025;-79
2022/11/20 02:54:34;;;;;;;7.90;4.37;;;-2.60;99.90;;;;;;5042897;28;20044;-80
2022/11/20 02:57:01;;;;;;;7.60;4.20;;;-2.60;99.90;;;;;;5027995;28;20049;-79
2022/11/20 02:59:27;;;;;;;6.50;3.63;;;-2.60;99.90;;;;;;5021224;28;20043;-77
2022/11/20 03:01:53;;;;;;;6.43;3.80;;;-2.60;99.90;;;;;;5009780;28;20424;-80
2022/11/20 03:04:20;;;;;;;5.67;4.07;;;-2.70;99.90;;;;;;5027063;28;20040;-79
2022/11/20 03:06:46;;;;;;;5.10;3.80;;;-2.60;99.90;;;;;;5015216;28;20040;-76
2022/11/20 03:09:12;;;;;;;6.50;3.30;;;-2.70;99.90;;;;;;5011357;28;20518;-77
2022/11/20 03:11:39;;;;;;;6.23;3.90;;;-2.70;99.90;;;;;;5042102;28;20541;-80
2022/11/20 03:14:05;;;;;;;8.67;4.90;;;-2.70;99.90;;;;;;5026863;28;20396;-80
2022/11/20 03:16:32;;;;;;;5.73;3.60;;;-2.70;99.90;;;;;;5029883;28;20060;-79
2022/11/20 03:18:59;;;;;;;9.03;5.00;;;-2.70;99.90;;;;;;5058197;28;20048;-80
2022/11/20 03:21:25;;;;;;;6.87;4.03;;;-2.70;99.90;;;;;;5025470;28;20029;-78
2022/11/20 03:23:54;;;;;;;7.77;4.60;;;-2.70;99.90;;;;;;5014773;28;20044;-77
2022/11/20 03:26:23;;;;;;;7.13;4.07;;;-2.70;99.90;;;;;;5030380;28;20032;-79
2022/11/20 03:28:51;;;;;;;6.70;3.60;;;-2.70;99.90;;;;;;5028647;28;20412;-78
2022/11/20 03:31:21;;;;;;;5.83;4.00;;;-2.70;99.90;;;;;;5042046;28;20059;-77
2022/11/20 03:33:47;;;;;;;8.73;5.87;;;-2.70;99.90;;;;;;5050879;28;20112;-79
2022/11/20 03:36:15;;;;;;;6.03;4.23;;;-2.70;99.90;;;;;;5050873;28;20072;-78
2022/11/20 03:38:42;;;;;;;6.07;3.87;;;-2.70;99.90;;;;;;5029700;28;20036;-80
2022/11/20 03:41:11;;;;;;;6.73;4.50;;;-2.70;99.90;;;;;;5028191;28;20403;-78
2022/11/20 03:43:37;;;;;;;6.83;3.97;;;-2.70;99.90;;;;;;5046521;28;20511;-76
2022/11/20 03:46:05;;;;;;;6.27;3.67;;;-2.80;99.90;;;;;;5016919;28;20374;-78
2022/11/20 03:48:32;;;;;;;5.50;3.33;;;-2.80;99.90;;;;;;5029901;28;20033;-78
2022/11/20 03:51:13;;;;;;;5.40;3.70;;;-2.80;99.90;;;;;;5026925;28;20040;-77
2022/11/20 03:53:41;;;;;;;6.90;4.27;;;-2.80;99.90;;;;;;5046785;28;20033;-77
2022/11/20 03:56:08;;;;;;;9.73;6.40;;;-2.80;99.90;;;;;;5045443;28;20041;-78
2022/11/20 03:58:39;;;;;;;6.70;4.77;;;-2.80;99.90;;;;;;5029425;28;20513;-79
2022/11/20 04:01:21;;;;;;;9.70;6.10;;;-2.80;99.90;;;;;;5042772;28;20044;-80
2022/11/20 04:03:48;;;;;;;7.70;4.90;;;-2.80;99.90;;;;;;5032807;28;20522;-80
2022/11/20 04:06:23;;;;;;;8.93;4.77;;;-2.80;99.90;;;;;;5047455;28;20060;-79
2022/11/20 04:08:50;;;;;;;7.73;4.67;;;-2.80;99.90;;;;;;5029109;28;20607;-77
2022/11/20 04:11:22;;;;;;;9.00;5.27;;;-2.80;99.90;;;;;;5027353;28;20040;-80
2022/11/20 04:13:51;;;;;;;11.20;6.73;;;-2.90;99.90;;;;;;5029919;28;20507;-79
2022/11/20 04:16:18;;;;;;;9.40;5.63;;;-2.90;99.90;;;;;;5030488;28;20049;-79
2022/11/20 04:18:44;;;;;;;10.10;5.70;;;-2.90;99.90;;;;;;5032081;28;20061;-78
2022/11/20 04:21:11;;;;;;;12.10;6.30;;;-2.90;99.90;;;;;;5044466;28;20032;-78
2022/11/20 04:23:38;;;;;;;9.67;6.30;;;-2.90;99.90;;;;;;5030175;28;20345;-79
2022/11/20 04:26:10;;;;;;;8.40;5.40;;;-2.90;99.90;;;;;;5014064;28;20036;-77
2022/11/20 04:28:37;;;;;;;10.17;6.13;;;-2.90;99.90;;;;;;5042151;28;20033;-75
2022/11/20 04:31:15;;;;;;;10.13;5.50;;;-2.90;99.90;;;;;;5047385;28;20291;-75
2022/11/20 04:33:42;;;;;;;7.20;4.27;;;-2.90;99.90;;;;;;5047186;28;20473;-77
2022/11/20 04:36:14;;;;;;;9.03;5.40;;;-3.00;99.90;;;;;;5030083;28;20040;-79
2022/11/20 04:38:41;;;;;;;5.33;3.77;;;-3.00;99.90;;;;;;5047089;28;20032;-80
2022/11/20 04:41:10;;;;;;;9.13;5.17;;;-3.00;99.90;;;;;;5027679;28;20052;-80
2022/11/20 04:43:37;;;;;;;9.30;6.00;;;-3.00;99.90;;;;;;5014850;28;20550;-79
2022/11/20 04:46:04;;;;;;;9.53;5.97;;;-3.00;99.90;;;;;;5047320;28;20029;-79
2022/11/20 04:48:31;;;;;;;7.33;5.23;;;-3.00;99.90;;;;;;5045234;28;20037;-78
2022/11/20 04:50:57;;;;;;;8.87;5.30;;;-3.00;99.90;;;;;;5046598;28;20499;-79
2022/11/20 04:53:24;;;;;;;7.63;5.23;;;-3.10;99.90;;;;;;5035485;28;20377;-80
2022/11/20 04:55:50;;;;;;;7.60;4.83;;;-3.10;99.90;;;;;;5047276;28;20029;-76
2022/11/20 04:58:16;;;;;;;11.47;5.80;;;-3.10;99.90;;;;;;5034400;28;20410;-80
2022/11/20 05:00:43;;;;;;;12.60;6.87;;;-3.10;99.90;;;;;;5044177;28;20052;-79
2022/11/20 05:03:09;;;;;;;10.73;6.20;;;-3.10;99.90;;;;;;5017625;28;20028;-79
2022/11/20 05:05:36;;;;;;;7.80;5.13;;;-3.10;99.90;;;;;;5032121;28;20128;-77
2022/11/20 05:08:02;;;;;;;8.10;5.10;;;-3.10;99.90;;;;;;5032509;28;20579;-80
2022/11/20 05:10:29;;;;;;;8.50;5.33;;;-3.10;99.90;;;;;;5027720;28;20395;-79
2022/11/20 05:12:56;;;;;;;10.13;6.50;;;-3.10;99.90;;;;;;5018192;28;20021;-78
2022/11/20 05:15:23;;;;;;;9.90;5.83;;;-3.10;99.90;;;;;;5048329;28;20524;-80
2022/11/20 05:17:53;;;;;;;9.40;5.53;;;-3.20;99.90;;;;;;5046692;28;20613;-79
2022/11/20 05:20:19;;;;;;;7.77;4.40;;;-3.20;99.90;;;;;;5042270;28;20499;-79
2022/11/20 05:22:46;;;;;;;7.60;4.33;;;-3.20;99.90;;;;;;5028006;28;20033;-81
2022/11/20 05:25:12;;;;;;;8.53;5.00;;;-3.20;99.90;;;;;;5051467;28;20032;-76
2022/11/20 05:27:39;;;;;;;10.60;6.13;;;-3.20;99.90;;;;;;5048393;28;20420;-80
2022/11/20 05:30:06;;;;;;;7.90;4.70;;;-3.20;99.90;;;;;;5025375;28;20032;-80
2022/11/20 05:32:32;;;;;;;8.60;5.47;;;-3.20;99.90;;;;;;5024306;28;20028;-80
2022/11/20 05:34:58;;;;;;;7.60;4.67;;;-3.20;99.90;;;;;;5030349;28;20052;-79
2022/11/20 05:37:25;;;;;;;7.63;4.60;;;-3.20;99.90;;;;;;5032347;28;20037;-81
2022/11/20 05:39:51;;;;;;;6.97;4.77;;;-3.20;99.90;;;;;;5024241;28;20491;-78
2022/11/20 05:42:32;;;;;;;7.43;4.63;;;-3.30;99.90;;;;;;5044930;28;20488;-80
2022/11/20 05:45:03;;;;;;;7.33;4.60;;;-3.30;99.90;;;;;;5030186;28;20033;-80
2022/11/20 05:47:34;;;;;;;12.43;6.90;;;-3.20;99.90;;;;;;5016017;28;20473;-81
2022/11/20 05:50:01;;;;;;;8.33;4.63;;;-3.30;99.90;;;;;;5039969;28;20033;-79
2022/11/20 05:52:31;;;;;;;7.33;4.67;;;-3.30;99.90;;;;;;5033371;28;20492;-79
2022/11/20 05:54:57;;;;;;;10.33;6.13;;;-3.30;99.90;;;;;;5052453;28;20039;-81
2022/11/20 05:57:23;;;;;;;7.53;4.93;;;-3.30;99.90;;;;;;5053647;28;20045;-81
2022/11/20 05:59:50;;;;;;;7.70;5.37;;;-3.30;99.90;;;;;;5047743;28;20036;-80
2022/11/20 06:02:16;;;;;;;10.93;6.13;;;-3.30;99.90;;;;;;5031860;28;20061;-79
2022/11/20 06:04:42;;;;;;;9.53;5.37;;;-3.30;99.90;;;;;;5050290;28;20055;-80
2022/11/20 06:07:09;;;;;;;9.37;5.67;;;-3.40;99.90;;;;;;5048375;28;20029;-79
2022/11/20 06:09:35;;;;;;;8.20;5.00;;;-3.30;99.90;;;;;;5046398;28;20484;-75
2022/11/20 06:12:01;;;;;;;10.37;6.40;;;-3.30;99.90;;;;;;5048094;28;20044;-80
2022/11/20 06:14:27;;;;;;;10.10;5.40;;;-3.30;99.90;;;;;;5050758;28;20033;-79
2022/11/20 06:16:54;;;;;;;8.23;5.33;;;-3.40;99.90;;;;;;5033196;28;20041;-75
2022/11/20 06:19:20;;;;;;;8.37;4.63;;;-3.30;99.90;;;;;;5029383;28;20036;-76
2022/11/20 06:21:49;;;;;;;9.13;5.23;;;-3.30;99.90;;;;;;5016161;28;20436;-79
2022/11/20 06:24:15;;;;;;;8.87;5.13;;;-3.30;99.90;;;;;;5047896;28;20468;-79
2022/11/20 06:26:42;;;;;;;8.40;4.93;;;-3.40;99.90;;;;;;5031545;28;20498;-80
2022/11/20 06:29:08;;;;;;;10.43;6.23;;;-3.40;99.90;;;;;;5014208;28;20028;-78
2022/11/20 06:31:37;;;;;;;8.27;5.07;;;-3.40;99.90;;;;;;5046759;28;20487;-80
2022/11/20 06:34:07;;;;;;;9.40;5.40;;;-3.40;99.90;;;;;;5031665;28;20401;-79
2022/11/20 06:36:34;;;;;;;8.37;5.77;;;-3.40;99.90;;;;;;5028726;28;20530;-80
2022/11/20 06:39:00;;;;;;;9.80;5.70;;;-3.40;99.90;;;;;;5045369;28;20028;-81
2022/11/20 06:41:27;;;;;;;9.60;5.93;;;-3.40;99.90;;;;;;5045607;28;20039;-75
2022/11/20 06:43:54;;;;;;;8.80;5.33;;;-3.50;99.90;;;;;;5035675;28;20397;-81
2022/11/20 06:46:21;;;;;;;7.20;5.17;;;-3.40;99.90;;;;;;5031073;28;20029;-80
2022/11/20 06:48:48;;;;;;;11.60;6.07;;;-3.40;99.90;;;;;;5047587;28;20037;-80
2022/11/20 06:51:15;;;;;;;10.57;5.93;;;-3.40;99.90;;;;;;5026559;28;20060;-80
2022/11/20 06:53:41;;;;;;;9.37;5.63;;;-3.40;99.90;;;;;;5016018;28;20052;-79
2022/11/20 06:56:08;;;;;;;10.53;6.37;;;-3.40;99.90;;;;;;5031288;28;20518;-81
2022/11/20 06:58:36;;;;;;;12.13;6.67;;;-3.50;99.90;;;;;;5049364;28;20040;-79
2022/11/20 07:01:08;;;;;;;11.23;5.80;;;-3.50;99.90;;;;;;5044627;28;20515;-76
2022/11/20 07:03:35;;;;;;;8.98;5.78;;;-3.50;99.90;;;;;;5032059;28;20029;-82
2022/11/20 07:06:02;;;;;;;9.80;5.70;;;-3.50;99.90;;;;;;5031511;28;20044;-79
2022/11/20 07:08:29;;;;;;;11.13;6.67;;;-3.50;99.90;;;;;;5049504;28;20044;-76
2022/11/20 07:11:01;;;;;;;12.47;7.17;;;-3.50;99.90;;;;;;5032481;28;20044;-81
2022/11/20 07:13:28;;;;;;;15.37;9.20;;;-3.40;99.90;;;;;;5018982;28;20036;-80
2022/11/20 07:15:55;;;;;;;12.03;7.70;;;-3.40;99.90;;;;;;5032415;28;20032;-79
2022/11/20 07:18:21;;;;;;;10.30;6.83;;;-3.40;99.90;;;;;;5050837;28;20047;-80
2022/11/20 07:20:47;;;;;;;12.03;6.60;;;-3.30;99.90;;;;;;5029755;28;20049;-82
2022/11/20 07:23:14;;;;;;;12.07;7.30;;;-3.40;99.90;;;;;;5050542;28;20041;-82
2022/11/20 07:25:40;;;;;;;12.37;7.57;;;-3.30;99.90;;;;;;5048176;28;20040;-79
2022/11/20 07:28:06;;;;;;;14.73;8.30;;;-3.30;99.90;;;;;;5046357;28;20045;-80
2022/11/20 07:30:33;;;;;;;9.33;5.93;;;-3.20;99.90;;;;;;5044720;28;20399;-80
2022/11/20 07:32:59;;;;;;;11.73;7.73;;;-3.20;99.90;;;;;;5035106;28;20437;-80
2022/11/20 07:35:26;;;;;;;14.10;7.37;;;-3.20;99.90;;;;;;5032204;28;20524;-81
2022/11/20 07:37:52;;;;;;;12.63;7.27;;;-3.10;99.90;;;;;;5052754;28;20499;-80
2022/11/20 07:40:19;;;;;;;11.70;7.43;;;-3.10;99.90;;;;;;5044323;28;20037;-79
2022/11/20 07:42:54;;;;;;;12.73;6.93;;;-3.00;99.90;;;;;;5030032;28;20033;-80
2022/11/20 07:45:22;;;;;;;12.77;7.67;;;-3.00;99.90;;;;;;5030367;28;20025;-81
2022/11/20 07:47:48;;;;;;;12.73;8.07;;;-3.00;99.90;;;;;;5032438;28;20033;-80
2022/11/20 07:50:15;;;;;;;13.10;7.57;;;-2.90;99.90;;;;;;5046363;28;20028;-81
2022/11/20 07:52:42;;;;;;;12.87;8.03;;;-2.90;99.90;;;;;;5015488;28;20037;-81
2022/11/20 07:55:09;;;;;;;14.50;9.23;;;-2.80;99.90;;;;;;5045754;28;20029;-80
2022/11/20 07:57:35;;;;;;;13.37;8.80;;;-2.70;99.90;;;;;;5014144;28;20415;-82
2022/11/20 08:00:04;;;;;;;14.53;8.27;;;-2.70;99.90;;;;;;5042105;28;20044;-81
2022/11/20 08:02:39;;;;;;;11.57;7.87;;;-2.60;99.90;;;;;;5031926;28;20041;-82
2022/11/20 08:05:06;;;;;;;15.03;8.90;;;-2.60;99.90;;;;;;5049517;28;20479;-81
2022/11/20 08:07:41;;;;;;;9.70;5.60;;;-2.50;99.90;;;;;;5048985;28;20100;-80
2022/11/20 08:10:09;;;;;;;12.17;7.23;;;-2.50;99.90;;;;;;5043659;28;20047;-80
2022/11/20 08:15:20;;;;;;;12.20;7.83;;;-2.40;99.90;;;;;;5048225;28;20029;-79
2022/11/20 08:17:47;;;;;;;12.90;8.50;;;-2.30;99.90;;;;;;5032636;28;20049;-79
2022/11/20 08:20:13;;;;;;;12.30;7.77;;;-2.20;99.90;;;;;;5044874;28;20044;-82
2022/11/20 08:22:39;;;;;;;14.00;8.63;;;-2.10;99.90;;;;;;5050302;28;20064;-82
2022/11/20 08:25:06;;;;;;;14.17;8.47;;;-2.00;99.90;;;;;;5018563;28;20032;-87
2022/11/20 08:27:32;;;;;;;11.50;8.03;;;-1.90;99.90;;;;;;5047624;28;20029;-86
2022/11/20 08:29:59;;;;;;;14.13;9.07;;;-1.80;99.90;;;;;;5024941;28;20037;-85
2022/11/20 08:32:25;;;;;;;15.73;9.83;;;-1.70;99.90;;;;;;5040908;28;20040;-85
2022/11/20 08:34:52;;;;;;;13.90;9.10;;;-1.60;99.90;;;;;;5045070;28;20410;-83
2022/11/20 08:37:18;;;;;;;18.57;11.57;;;-1.60;99.90;;;;;;5009572;28;20048;-81
2022/11/20 08:39:45;;;;;;;14.67;9.50;;;-1.50;99.90;;;;;;5040919;28;20043;-82
2022/11/20 08:42:11;;;;;;;13.93;9.10;;;-1.40;99.90;;;;;;5029032;28;20064;-81
2022/11/20 08:44:37;;;;;;;13.57;8.93;;;-1.40;99.90;;;;;;5043679;28;20044;-83
2022/11/20 08:47:04;;;;;;;8.80;6.30;;;-1.30;99.90;;;;;;5042455;28;20021;-78
2022/11/20 08:49:30;;;;;;;14.40;8.57;;;-1.30;99.90;;;;;;5025350;28;20454;-82
2022/11/20 08:51:57;;;;;;;12.53;7.53;;;-1.20;99.90;;;;;;5041345;28;20043;-83
2022/11/20 08:54:23;;;;;;;13.47;9.00;;;-1.10;99.90;;;;;;5058532;28;20028;-84
2022/11/20 08:56:49;;;;;;;11.90;7.83;;;-1.10;99.90;;;;;;5039836;28;20037;-79
2022/11/20 08:59:16;;;;;;;13.70;10.13;;;-1.10;99.90;;;;;;5026139;28;20040;-80
2022/11/20 09:01:42;;;;;;;21.40;13.90;;;-1.00;99.90;;;;;;5025929;28;20053;-83
2022/11/20 09:04:08;;;;;;;29.37;16.37;;;-0.90;99.90;;;;;;5046044;28;20033;-80
2022/11/20 09:06:34;;;;;;;21.90;13.47;;;-0.80;99.90;;;;;;5028653;28;20029;-84
2022/11/20 09:09:01;;;;;;;23.03;15.60;;;-0.70;99.90;;;;;;5010422;28;20143;-82
2022/11/20 09:11:27;;;;;;;23.27;14.30;;;-0.50;99.90;;;;;;5043692;28;20024;-82
2022/11/20 09:13:53;;;;;;;21.20;13.80;;;-0.40;99.90;;;;;;5042802;28;20033;-80
2022/11/20 09:16:19;;;;;;;23.60;15.50;;;-0.30;99.90;;;;;;5038901;28;20037;-83
2022/11/20 09:18:46;;;;;;;21.73;13.60;;;-0.20;99.90;;;;;;5040370;28;20484;-82
2022/11/20 09:21:13;;;;;;;22.57;15.93;;;-0.10;99.90;;;;;;5040425;28;20681;-84
2022/11/20 09:23:40;;;;;;;19.47;13.23;;;-0.10;99.90;;;;;;5036504;28;20033;-80
2022/11/20 09:26:11;;;;;;;24.33;13.53;;;0.00;99.90;;;;;;5036222;28;20036;-80
2022/11/20 09:28:38;;;;;;;23.60;15.50;;;0.10;99.90;;;;;;5025393;28;20144;-80
2022/11/20 09:31:08;;;;;;;26.43;16.37;;;0.20;99.90;;;;;;5038175;28;20712;-82
2022/11/20 09:33:35;;;;;;;30.13;17.53;;;0.20;99.90;;;;;;5046425;28;20032;-82
2022/11/20 09:36:02;;;;;;;28.83;16.67;;;0.40;99.90;;;;;;5047822;28;20040;-82
2022/11/20 09:38:28;;;;;;;30.17;18.60;;;0.40;99.90;;;;;;5031025;28;20548;-78
2022/11/20 09:41:04;;;;;;;29.20;18.53;;;0.50;99.90;;;;;;5028221;28;20045;-78
2022/11/20 09:44:08;;;;;;;28.97;17.07;;;0.50;99.90;;;;;;5017712;28;20041;-80
2022/11/20 09:46:57;;;;;;;21.60;14.50;;;0.60;99.90;;;;;;5046995;28;20467;-81
2022/11/20 09:49:35;;;;;;;31.90;19.60;;;0.70;99.90;;;;;;5047270;28;20468;-81
2022/11/20 09:52:29;;;;;;;31.23;19.97;;;0.70;99.90;;;;;;5044030;28;20036;-79
2022/11/20 09:54:56;;;;;;;29.97;17.97;;;0.80;99.90;;;;;;5028165;28;20033;-80
2022/11/20 09:57:32;;;;;;;30.17;17.77;;;0.80;99.90;;;;;;5054556;28;20050;-79
2022/11/20 10:00:04;;;;;;;26.33;18.10;;;0.80;99.90;;;;;;5037269;28;20044;-79
2022/11/20 10:02:55;;;;;;;27.50;18.17;;;0.90;99.90;;;;;;5038640;28;20046;-80
2022/11/20 10:05:33;;;;;;;37.93;23.37;;;1.00;99.90;;;;;;5037299;28;20346;-78
2022/11/20 10:08:21;;;;;;;34.53;21.07;;;1.00;99.90;;;;;;5040241;28;20032;-81
2022/11/20 10:11:03;;;;;;;39.13;26.37;;;1.10;99.90;;;;;;5024253;28;20087;-81
2022/11/20 10:13:47;;;;;;;30.95;19.23;;;1.20;99.90;;;;;;5037673;28;20506;-79
2022/11/20 10:16:48;;;;;;;37.87;21.57;;;1.20;99.90;;;;;;5043519;28;20677;-79
2022/11/20 10:19:33;;;;;;;31.37;17.67;;;1.30;99.90;;;;;;5041830;28;20045;-78
2022/11/20 10:22:11;;;;;;;27.57;17.43;;;1.40;99.90;;;;;;5017118;28;20406;-80
2022/11/20 10:24:57;;;;;;;31.00;17.53;;;1.40;99.90;;;;;;5044970;28;20052;-80
2022/11/20 10:27:34;;;;;;;29.63;19.20;;;1.50;99.90;;;;;;5043002;28;20044;-82
2022/11/20 10:30:05;;;;;;;31.37;19.33;;;1.60;99.90;;;;;;5025552;28;20475;-79
2022/11/20 10:32:39;;;;;;;31.60;19.93;;;1.70;99.90;;;;;;5043403;28;20030;-77
2022/11/20 10:35:42;;;;;;;29.60;16.83;;;1.70;99.90;;;;;;5030819;28;20047;-79
2022/11/20 10:38:19;;;;;;;26.23;17.30;;;1.70;99.90;;;;;;5008565;28;20049;-78
2022/11/20 10:40:50;;;;;;;28.37;17.23;;;1.80;99.90;;;;;;5034558;28;20036;-77
2022/11/20 10:43:33;;;;;;;29.50;17.30;;;1.90;99.90;;;;;;5032257;28;20032;-78
2022/11/20 10:46:08;;;;;;;20.77;15.10;;;2.00;99.90;;;;;;5042333;28;20032;-79
2022/11/20 10:48:37;;;;;;;27.20;16.57;;;2.00;99.90;;;;;;5025247;28;20359;-78
2022/11/20 10:51:16;;;;;;;24.87;16.60;;;2.10;99.90;;;;;;5041569;28;20515;-78
2022/11/20 10:53:55;;;;;;;20.03;14.83;;;2.10;99.90;;;;;;5013663;28;20036;-79
2022/11/20 10:56:27;;;;;;;27.23;18.17;;;2.10;99.90;;;;;;5043539;28;20029;-78
2022/11/20 10:59:24;;;;;;;21.90;16.23;;;2.20;99.90;;;;;;5020558;28;20052;-77
2022/11/20 11:01:51;;;;;;;26.47;17.87;;;2.30;99.90;;;;;;5030631;28;20056;-77
2022/11/20 11:04:58;;;;;;;23.33;16.87;;;2.40;99.90;;;;;;5030421;28;20287;-78
2022/11/20 11:07:36;;;;;;;27.87;17.90;;;2.40;99.90;;;;;;5042312;28;20043;-76
2022/11/20 11:10:21;;;;;;;23.23;16.87;;;2.50;99.90;;;;;;5016720;28;20033;-78
2022/11/20 11:12:48;;;;;;;23.77;15.33;;;2.50;99.90;;;;;;5049129;28;20029;-77
2022/11/20 11:15:26;;;;;;;22.00;15.30;;;2.60;99.90;;;;;;5014315;28;20399;-77
2022/11/20 11:17:52;;;;;;;21.15;14.65;;;2.70;99.90;;;;;;5030603;28;20227;-75
2022/11/20 11:20:24;;;;;;;28.30;19.57;;;2.70;99.90;;;;;;5050480;28;20033;-76
2022/11/20 11:22:58;;;;;;;21.67;16.10;;;2.70;99.90;;;;;;5048236;28;20040;-78
2022/11/20 11:25:36;;;;;;;25.37;17.87;;;2.70;99.90;;;;;;5049334;28;20037;-78
2022/11/20 11:28:04;;;;;;;24.67;16.80;;;2.70;99.90;;;;;;5047612;28;20025;-77
2022/11/20 11:30:43;;;;;;;22.33;16.17;;;2.80;99.90;;;;;;5026099;28;20037;-77
2022/11/20 11:33:12;;;;;;;23.77;16.20;;;2.80;99.90;;;;;;5045193;28;20032;-78
2022/11/20 11:35:50;;;;;;;25.03;17.50;;;2.90;99.90;;;;;;5041848;28;20045;-77
2022/11/20 11:38:21;;;;;;;26.63;17.67;;;2.90;99.90;;;;;;5027646;28;20045;-77
2022/11/20 11:40:48;;;;;;;24.97;18.77;;;3.00;99.90;;;;;;5045627;28;20074;-77
2022/11/20 11:46:29;;;;;;;26.88;19.40;;;3.00;99.90;;;;;;5044812;28;20033;-78
2022/11/20 11:49:20;;;;;;;26.43;17.87;;;3.10;99.90;;;;;;5024010;28;20059;-79
2022/11/20 11:51:53;;;;;;;27.92;19.13;;;3.10;99.90;;;;;;5012728;28;20037;-78
2022/11/20 11:54:51;;;;;;;27.50;18.55;;;3.10;99.90;;;;;;5028513;28;20042;-78
2022/11/20 11:57:28;;;;;;;27.47;18.57;;;3.20;99.90;;;;;;5041250;28;20033;-78
2022/11/20 12:00:04;;;;;;;24.93;18.57;;;3.30;99.90;;;;;;5046580;28;20040;-78
2022/11/20 12:02:44;;;;;;;22.70;16.47;;;3.20;99.90;;;;;;5044636;28;20506;-79
2022/11/20 12:05:32;;;;;;;28.67;19.87;;;3.20;99.90;;;;;;5033218;28;20036;-79
2022/11/20 12:08:23;;;;;;;27.47;19.03;;;3.10;99.90;;;;;;5047001;28;20025;-78
2022/11/20 12:11:03;;;;;;;26.37;18.20;;;3.10;99.90;;;;;;5046099;28;20037;-78
2022/11/20 12:13:37;;;;;;;25.37;17.53;;;3.10;99.90;;;;;;5051322;28;20041;-79
2022/11/20 12:16:04;;;;;;;30.10;20.73;;;3.00;99.90;;;;;;5033837;28;20035;-79
2022/11/20 12:18:31;;;;;;;27.10;20.50;;;2.90;99.90;;;;;;5045943;28;20403;-79
2022/11/20 12:21:20;;;;;;;27.10;19.80;;;2.90;99.90;;;;;;5047932;28;21308;-80
2022/11/20 12:23:55;;;;;;;25.20;18.03;;;2.80;99.90;;;;;;5032154;28;20051;-79
2022/11/20 12:26:53;;;;;;;21.80;17.00;;;2.80;99.90;;;;;;5044859;28;20037;-78
2022/11/20 12:30:04;;;;;;;27.13;19.33;;;2.80;99.90;;;;;;5011942;28;20048;-78
2022/11/20 12:32:30;;;;;;;25.17;18.30;;;2.70;99.90;;;;;;5020075;28;20043;-77
2022/11/20 12:35:28;;;;;;;24.40;18.97;;;2.70;99.90;;;;;;5028464;28;20052;-76
2022/11/20 12:38:13;;;;;;;25.70;17.47;;;2.70;99.90;;;;;;5025369;28;20037;-77
2022/11/20 12:40:58;;;;;;;27.63;19.43;;;2.60;99.90;;;;;;5046496;28;20047;-78
2022/11/20 12:46:35;;;;;;;22.60;17.30;;;2.70;99.90;;;;;;5042093;28;20032;-78
2022/11/20 12:49:23;;;;;;;29.03;21.87;;;2.70;99.90;;;;;;5036877;28;20037;-76
2022/11/20 12:52:02;;;;;;;25.97;17.70;;;2.70;99.90;;;;;;5020980;28;20041;-78
2022/11/20 12:54:40;;;;;;;22.40;15.47;;;2.80;99.90;;;;;;5027958;28;20040;-78
2022/11/20 12:57:28;;;;;;;19.97;14.60;;;2.80;99.90;;;;;;5023505;28;20037;-76
2022/11/20 13:00:07;;;;;;;23.33;16.73;;;2.90;99.90;;;;;;5023947;28;20427;-79
2022/11/20 13:02:34;;;;;;;25.77;18.23;;;3.00;99.90;;;;;;5045514;28;20032;-78
2022/11/20 13:05:21;;;;;;;21.63;17.00;;;3.10;99.90;;;;;;5040364;28;20037;-76
2022/11/20 13:07:52;;;;;;;24.20;18.37;;;3.10;99.90;;;;;;5032029;28;20037;-79
2022/11/20 13:10:27;;;;;;;30.43;19.57;;;3.10;99.90;;;;;;5031874;28;20049;-79